CheckWX is a tool to help pilots better visualize weather data.  It is not intended as a substitute for an official pre-flight weather briefing.

18:35:43 UTC

KLFT TAF
Lafayette Regional / Paul Fournet Field Airport
Lafayette, Louisiana, USA
KLFT 221736Z 2218/2318 16010KT P6SM VCSH BKN015 OVC025 FM230200 16006KT 6SM BR VCSH OVC007 FM230600 18005KT 3SM BR VCSH OVC003 FM230800 18005KT 1/2SM FG VCSH OVC003

Feb-22@
18:00 UTC

Feb-22 @ 18:00 UTC

Feb-23@
02:00 UTC

Feb-23 @ 02:00 UTC

KLFT 221736Z 2218/2318 16010KT P6SM VCSH BKN015 OVC025
Wind
  • 160° at 10 KTS
Cloud Levels
  • Broken at 1,500' AGL
  • Overcast at 2,500' AGL

Feb-23@
02:00 UTC

Feb-23 @ 02:00 UTC

Feb-23@
06:00 UTC

Feb-23 @ 06:00 UTC

FM230200 16006KT 6SM BR VCSH OVC007

From

FromStandard forecast or significant change

Wind
  • 160° at 6 KTS
Conditions
Mist
Cloud Levels
  • Overcast at 700' AGL

Feb-23@
06:00 UTC

Feb-23 @ 06:00 UTC

Feb-23@
08:00 UTC

Feb-23 @ 08:00 UTC

FM230600 18005KT 3SM BR VCSH OVC003

From

FromStandard forecast or significant change

Wind
  • 180° at 5 KTS
Conditions
Mist
Cloud Levels
  • Overcast at 300' AGL

Feb-23@
08:00 UTC

Feb-23 @ 08:00 UTC

Feb-23@
18:00 UTC

Feb-23 @ 18:00 UTC

FM230800 18005KT 1/2SM FG VCSH OVC003

From

FromStandard forecast or significant change

Wind
  • 180° at 5 KTS
Conditions
Fog
Cloud Levels
  • Overcast at 300' AGL